Time;durP1;ratioP1;P1;durP2;ratioP2;P2;SDS_P1;SDS_P2;PMS_P1;PMS_P2;Temp;Humidity;BMP_temperature;BMP_pressure;BME280_temperature;BME280_humidity;BME280_pressure;Samples;Min_cycle;Max_cycle;Signal;HPM_P1;HPM_P2
2023/08/22 00:01:10;;;;;;;14.02;5.88;;;17.20;99.90;;;;;;5082564;28;20510;-88
2023/08/22 00:03:35;;;;;;;9.88;6.53;;;17.20;99.90;;;;;;5069553;28;20397;-88
2023/08/22 00:06:01;;;;;;;10.02;6.95;;;17.20;99.90;;;;;;5068589;28;20066;-88
2023/08/22 00:08:27;;;;;;;11.05;6.63;;;17.20;99.90;;;;;;5073663;28;20122;-88
2023/08/22 00:10:54;;;;;;;12.02;7.35;;;17.20;99.90;;;;;;5055574;28;20067;-88
2023/08/22 00:13:20;;;;;;;12.25;7.35;;;17.20;99.90;;;;;;5054910;28;20043;-88
2023/08/22 00:15:46;;;;;;;10.68;7.55;;;17.20;99.90;;;;;;5072362;28;20048;-88
2023/08/22 00:18:12;;;;;;;11.38;7.90;;;17.20;99.90;;;;;;5072160;28;20388;-88
2023/08/22 00:20:38;;;;;;;10.30;7.30;;;17.20;99.90;;;;;;5054830;28;20047;-87
2023/08/22 00:23:03;;;;;;;13.60;7.20;;;17.20;99.90;;;;;;5066928;28;20037;-87
2023/08/22 00:25:30;;;;;;;9.82;7.05;;;17.30;99.90;;;;;;5065140;28;20036;-88
2023/08/22 00:27:55;;;;;;;10.52;7.07;;;17.30;99.90;;;;;;5042371;28;20044;-87
2023/08/22 00:30:21;;;;;;;11.48;7.43;;;17.30;99.90;;;;;;5055509;28;20044;-87
2023/08/22 00:32:47;;;;;;;12.50;7.22;;;17.30;99.90;;;;;;5067231;28;20529;-87
2023/08/22 00:35:13;;;;;;;10.07;6.85;;;17.30;99.90;;;;;;5066392;28;20052;-87
2023/08/22 00:37:39;;;;;;;17.85;7.10;;;17.30;99.90;;;;;;5053807;28;20131;-87
2023/08/22 00:40:05;;;;;;;11.70;6.20;;;17.30;99.90;;;;;;5072030;28;20142;-87
2023/08/22 00:42:31;;;;;;;10.43;7.30;;;17.30;99.90;;;;;;5070611;28;20036;-86
2023/08/22 00:44:57;;;;;;;17.88;11.25;;;17.30;99.90;;;;;;5068512;28;20058;-86
2023/08/22 00:47:24;;;;;;;10.50;7.00;;;17.20;99.90;;;;;;5053768;28;20091;-87
2023/08/22 00:49:50;;;;;;;12.32;7.93;;;17.20;99.90;;;;;;5070880;28;20486;-86
2023/08/22 00:52:16;;;;;;;16.75;7.68;;;17.10;99.90;;;;;;5071390;28;20039;-86
2023/08/22 00:54:43;;;;;;;12.88;8.15;;;17.10;99.90;;;;;;5070101;28;20044;-86
2023/08/22 00:57:09;;;;;;;15.23;7.78;;;17.10;99.90;;;;;;5054577;28;20040;-86
2023/08/22 00:59:36;;;;;;;12.07;7.65;;;17.00;99.90;;;;;;5070994;28;20143;-87
2023/08/22 01:02:02;;;;;;;12.52;7.00;;;16.90;99.90;;;;;;5052764;28;20055;-86
2023/08/22 01:04:28;;;;;;;11.00;7.30;;;16.90;99.90;;;;;;5054775;28;20055;-86
2023/08/22 01:07:11;;;;;;;15.75;9.07;;;16.90;99.90;;;;;;5087806;28;20040;-86
2023/08/22 01:09:36;;;;;;;;;;;16.80;99.90;;;;;;5070583;28;20044;-86
2023/08/22 01:12:44;;;;;;;12.50;8.25;;;16.70;99.90;;;;;;5088668;28;19920;-87
2023/08/22 01:15:25;;;;;;;13.20;8.40;;;16.80;99.90;;;;;;5053727;28;20109;-86
2023/08/22 01:17:54;;;;;;;10.80;8.30;;;16.80;99.90;;;;;;5052714;28;20064;-86
2023/08/22 01:20:20;;;;;;;11.85;8.00;;;16.80;99.90;;;;;;5054721;28;20050;-86
2023/08/22 01:22:46;;;;;;;14.43;8.95;;;16.90;99.90;;;;;;5052655;28;20048;-87
2023/08/22 01:25:13;;;;;;;13.20;8.18;;;16.90;99.90;;;;;;5061193;28;20056;-86
2023/08/22 01:28:14;;;;;;;10.38;7.43;;;16.80;99.90;;;;;;5051234;28;20046;-86
2023/08/22 01:31:19;;;;;;;15.57;7.65;;;16.90;99.90;;;;;;5047512;28;20052;-87
2023/08/22 01:33:56;;;;;;;11.30;7.25;;;16.90;99.90;;;;;;5070424;28;20059;-87
2023/08/22 01:36:24;;;;;;;15.02;9.20;;;16.90;99.90;;;;;;5054244;28;20040;-87
2023/08/22 01:38:52;;;;;;;16.08;9.82;;;16.90;99.90;;;;;;5068924;28;20559;-87
2023/08/22 01:41:19;;;;;;;13.20;8.18;;;17.00;99.90;;;;;;5061078;28;20079;-86
2023/08/22 01:43:45;;;;;;;10.50;7.35;;;17.00;99.90;;;;;;5083240;28;20056;-87
2023/08/22 01:46:11;;;;;;;10.20;7.97;;;17.00;99.90;;;;;;5052894;28;20498;-87
2023/08/22 01:48:36;;;;;;;13.95;7.90;;;16.90;99.90;;;;;;5053398;28;20063;-87
2023/08/22 01:51:02;;;;;;;11.38;8.52;;;16.90;99.90;;;;;;5052422;28;20100;-87
2023/08/22 01:53:28;;;;;;;13.70;8.48;;;16.90;99.90;;;;;;5070530;28;20099;-87
2023/08/22 01:56:01;;;;;;;15.50;8.02;;;16.80;99.90;;;;;;5060224;28;20043;-86
2023/08/22 01:58:27;;;;;;;12.52;7.78;;;16.80;99.90;;;;;;5049688;28;20518;-86
2023/08/22 02:00:53;;;;;;;12.52;8.25;;;16.80;99.90;;;;;;5079343;28;20039;-87
2023/08/22 02:03:20;;;;;;;13.20;9.13;;;16.70;99.90;;;;;;5040384;28;20137;-87
2023/08/22 02:05:46;;;;;;;13.35;9.20;;;16.70;99.90;;;;;;5052216;28;20083;-86
2023/08/22 02:08:12;;;;;;;12.23;8.13;;;16.70;99.90;;;;;;5052964;28;20166;-86
2023/08/22 02:10:37;;;;;;;11.15;7.78;;;16.70;99.90;;;;;;5052837;28;20051;-87
2023/08/22 02:13:03;;;;;;;12.55;7.53;;;16.70;99.90;;;;;;5048563;28;20037;-87
2023/08/22 02:15:29;;;;;;;14.55;7.45;;;16.60;99.90;;;;;;5060152;28;20054;-86
2023/08/22 02:17:55;;;;;;;13.43;7.60;;;16.60;99.90;;;;;;5086847;28;20029;-87
2023/08/22 02:20:22;;;;;;;11.27;8.00;;;16.50;99.90;;;;;;5069152;28;20460;-87
2023/08/22 02:22:48;;;;;;;10.88;7.30;;;16.50;99.90;;;;;;5087346;28;20048;-87
2023/08/22 02:25:13;;;;;;;11.40;7.90;;;16.50;99.90;;;;;;5069319;28;20804;-86
2023/08/22 02:27:39;;;;;;;14.27;8.75;;;16.50;99.90;;;;;;5051788;28;20036;-87
2023/08/22 02:30:06;;;;;;;10.38;6.90;;;16.40;99.90;;;;;;5070400;28;20119;-87
2023/08/22 02:32:32;;;;;;;7.13;5.47;;;16.40;99.90;;;;;;5051458;28;20127;-87
2023/08/22 02:34:58;;;;;;;12.02;7.53;;;16.30;99.90;;;;;;5052306;28;20138;-87
2023/08/22 02:37:23;;;;;;;6.68;5.60;;;16.30;99.90;;;;;;5051886;28;20148;-87
2023/08/22 02:39:49;;;;;;;25.90;5.35;;;16.20;99.90;;;;;;5056214;28;20135;-87
2023/08/22 02:42:15;;;;;;;5.65;4.80;;;16.10;99.90;;;;;;5056346;28;20040;-86
2023/08/22 02:44:40;;;;;;;4.68;3.63;;;16.10;99.90;;;;;;5056382;28;20070;-86
2023/08/22 02:47:06;;;;;;;4.93;2.88;;;16.00;99.90;;;;;;5055529;28;20040;-87
2023/08/22 02:49:32;;;;;;;4.53;2.65;;;15.90;99.90;;;;;;5082250;28;20048;-87
2023/08/22 02:51:57;;;;;;;7.43;4.18;;;15.90;99.90;;;;;;5089084;28;20502;-87
2023/08/22 02:54:23;;;;;;;7.68;5.20;;;15.90;99.90;;;;;;5073411;28;20044;-87
2023/08/22 02:56:49;;;;;;;7.28;4.20;;;15.90;99.90;;;;;;5060059;28;20039;-87
2023/08/22 02:59:16;;;;;;;7.22;5.18;;;15.90;99.90;;;;;;5056918;28;20051;-86
2023/08/22 03:01:42;;;;;;;10.85;6.03;;;15.90;99.90;;;;;;5051088;28;20097;-86
2023/08/22 03:04:08;;;;;;;8.73;5.53;;;15.90;99.90;;;;;;5054145;28;20040;-87
2023/08/22 03:06:33;;;;;;;8.18;6.22;;;15.80;99.90;;;;;;5056554;28;20460;-87
2023/08/22 03:08:59;;;;;;;8.23;5.75;;;15.70;99.90;;;;;;5082083;28;20040;-86
2023/08/22 03:11:25;;;;;;;5.32;4.13;;;15.60;99.90;;;;;;5053005;28;20086;-86
2023/08/22 03:13:51;;;;;;;5.78;3.97;;;15.50;99.90;;;;;;5055852;28;20491;-86
2023/08/22 03:16:16;;;;;;;5.60;3.50;;;15.50;99.90;;;;;;5072447;28;20040;-87
2023/08/22 03:18:42;;;;;;;6.13;4.13;;;15.50;99.90;;;;;;5063721;28;20075;-87
2023/08/22 03:21:09;;;;;;;4.72;2.35;;;15.40;99.90;;;;;;5087285;28;20082;-87
2023/08/22 03:23:35;;;;;;;5.85;3.60;;;15.40;99.90;;;;;;5072461;28;20130;-86
2023/08/22 03:26:02;;;;;;;8.23;5.05;;;15.40;99.90;;;;;;5072382;28;20126;-88
2023/08/22 03:28:28;;;;;;;4.93;3.50;;;15.40;99.90;;;;;;5073695;28;20036;-87
2023/08/22 03:30:56;;;;;;;7.20;5.57;;;15.40;99.90;;;;;;5054318;28;20472;-87
2023/08/22 03:33:23;;;;;;;16.50;8.27;;;15.40;99.90;;;;;;5056654;28;20048;-87
2023/08/22 03:35:51;;;;;;;15.30;8.15;;;15.40;99.90;;;;;;5072474;28;20445;-87
2023/08/22 03:38:16;;;;;;;8.88;6.55;;;15.40;99.90;;;;;;5055316;28;20047;-87
2023/08/22 03:40:42;;;;;;;7.18;5.10;;;15.40;99.90;;;;;;5090391;28;20048;-87
2023/08/22 03:43:08;;;;;;;4.47;2.92;;;15.40;99.90;;;;;;5072268;28;20048;-87
2023/08/22 03:45:33;;;;;;;5.80;3.40;;;15.30;99.90;;;;;;5055584;28;20127;-86
2023/08/22 03:48:03;;;;;;;5.93;3.70;;;15.30;99.90;;;;;;5054783;28;20048;-87
2023/08/22 03:50:30;;;;;;;7.18;3.58;;;15.20;99.90;;;;;;5054662;28;20044;-87
2023/08/22 03:52:56;;;;;;;3.50;2.65;;;15.20;99.90;;;;;;5072455;28;20044;-87
2023/08/22 03:55:22;;;;;;;5.28;3.45;;;15.20;99.90;;;;;;5059815;28;20044;-87
2023/08/22 03:57:48;;;;;;;3.72;2.88;;;15.20;99.90;;;;;;5060129;28;20132;-87
2023/08/22 04:00:14;;;;;;;6.90;4.30;;;15.20;99.90;;;;;;5070389;28;20542;-87
2023/08/22 04:02:39;;;;;;;10.45;4.25;;;15.10;99.90;;;;;;5059251;28;20056;-86
2023/08/22 04:05:05;;;;;;;8.35;5.13;;;15.10;99.90;;;;;;5039850;28;20053;-87
2023/08/22 04:07:31;;;;;;;13.25;6.93;;;15.10;99.90;;;;;;5072111;28;20399;-87
2023/08/22 04:09:57;;;;;;;8.48;6.15;;;15.00;99.90;;;;;;5072338;28;20387;-86
2023/08/22 04:12:23;;;;;;;5.93;3.50;;;15.00;99.90;;;;;;5054748;28;20048;-86
2023/08/22 04:14:49;;;;;;;5.55;2.95;;;15.00;99.90;;;;;;5055064;28;20036;-86
2023/08/22 04:17:14;;;;;;;3.97;2.83;;;14.90;99.90;;;;;;5067573;28;20577;-86
2023/08/22 04:19:40;;;;;;;6.30;1.50;;;14.90;99.90;;;;;;5053983;28;20097;-86
2023/08/22 04:22:06;;;;;;;4.68;2.08;;;14.80;99.90;;;;;;5071907;28;20044;-86
2023/08/22 04:24:32;;;;;;;3.10;1.38;;;14.80;99.90;;;;;;5048062;28;20043;-86
2023/08/22 04:26:57;;;;;;;4.13;2.47;;;14.80;99.90;;;;;;5047933;28;20088;-86
2023/08/22 04:29:23;;;;;;;2.95;1.80;;;14.70;99.90;;;;;;5057447;28;20460;-87
2023/08/22 04:31:49;;;;;;;2.10;1.60;;;14.70;99.90;;;;;;5043160;28;20040;-86
2023/08/22 04:34:15;;;;;;;6.80;1.80;;;14.70;99.90;;;;;;5049685;28;20517;-87
2023/08/22 04:36:41;;;;;;;5.25;2.85;;;14.70;99.90;;;;;;5053438;28;20086;-87
2023/08/22 04:39:06;;;;;;;2.35;1.60;;;14.70;99.90;;;;;;5070173;28;20495;-87
2023/08/22 04:41:32;;;;;;;2.38;1.30;;;14.60;99.90;;;;;;5049048;28;20047;-87
2023/08/22 04:43:58;;;;;;;2.97;1.73;;;14.60;99.90;;;;;;5068574;28;20124;-87
2023/08/22 04:46:24;;;;;;;2.97;1.80;;;14.50;99.90;;;;;;5061218;28;20375;-87
2023/08/22 04:48:49;;;;;;;2.40;1.00;;;14.50;99.90;;;;;;5047921;28;20056;-87
2023/08/22 04:51:15;;;;;;;4.50;1.92;;;14.50;99.90;;;;;;5041665;28;20044;-87
2023/08/22 04:53:41;;;;;;;3.38;2.00;;;14.40;99.90;;;;;;5049467;28;20094;-87
2023/08/22 04:56:07;;;;;;;5.40;2.70;;;14.40;99.90;;;;;;5068295;28;20456;-87
2023/08/22 04:58:33;;;;;;;3.40;2.20;;;14.40;99.90;;;;;;5068053;28;20369;-86
2023/08/22 05:00:58;;;;;;;5.18;3.30;;;14.50;99.90;;;;;;5066522;28;20044;-87
2023/08/22 05:03:24;;;;;;;5.28;3.30;;;14.50;99.90;;;;;;5050307;28;20044;-87
2023/08/22 05:05:50;;;;;;;9.63;4.40;;;14.50;99.90;;;;;;5050909;28;20037;-87
2023/08/22 05:08:16;;;;;;;5.20;3.78;;;14.60;99.90;;;;;;5066531;28;20095;-87
2023/08/22 05:10:43;;;;;;;7.75;4.88;;;14.70;99.90;;;;;;5076797;28;20089;-87
2023/08/22 05:13:09;;;;;;;12.25;7.43;;;14.70;99.90;;;;;;5073701;28;20105;-87
2023/08/22 05:15:34;;;;;;;12.57;8.18;;;14.80;99.90;;;;;;5042893;28;20488;-87
2023/08/22 05:18:00;;;;;;;11.63;7.45;;;14.90;99.90;;;;;;5047632;28;20491;-87
2023/08/22 05:20:26;;;;;;;14.15;8.30;;;15.00;99.90;;;;;;5059288;28;20072;-87
2023/08/22 05:22:52;;;;;;;14.60;8.50;;;15.10;99.90;;;;;;5047665;28;20105;-87
2023/08/22 05:25:17;;;;;;;16.23;10.45;;;15.30;99.90;;;;;;5069200;28;20048;-87
2023/08/22 05:27:43;;;;;;;20.63;10.77;;;15.40;99.90;;;;;;5065309;28;20036;-87
2023/08/22 05:30:09;;;;;;;22.02;11.77;;;15.50;99.90;;;;;;5040175;28;20425;-87
2023/08/22 05:32:35;;;;;;;25.42;12.63;;;15.60;99.90;;;;;;5063846;28;20033;-87
2023/08/22 05:35:02;;;;;;;19.23;12.20;;;15.70;99.90;;;;;;5049105;28;20052;-87
2023/08/22 05:37:27;;;;;;;25.40;14.10;;;15.80;99.90;;;;;;5064423;28;20040;-87
2023/08/22 05:39:53;;;;;;;29.00;14.10;;;15.90;99.90;;;;;;5048775;28;20514;-87
2023/08/22 05:42:19;;;;;;;27.83;14.30;;;16.00;99.90;;;;;;5050092;28;20033;-87
2023/08/22 05:44:44;;;;;;;28.13;14.25;;;16.10;99.90;;;;;;5053817;28;20404;-87
2023/08/22 05:47:10;;;;;;;26.48;13.52;;;16.20;99.90;;;;;;5046890;28;20491;-87
2023/08/22 05:49:36;;;;;;;22.58;11.82;;;16.30;99.90;;;;;;5057732;28;20102;-86
2023/08/22 05:52:03;;;;;;;23.65;12.27;;;16.40;99.90;;;;;;5068680;28;20036;-87
2023/08/22 05:54:32;;;;;;;24.13;11.10;;;16.50;99.90;;;;;;5073988;28;20083;-87
2023/08/22 05:56:58;;;;;;;20.85;10.52;;;16.70;99.90;;;;;;5047491;28;20491;-86
2023/08/22 05:59:24;;;;;;;21.15;10.75;;;16.80;99.90;;;;;;5068390;28;20138;-87
2023/08/22 06:01:50;;;;;;;16.45;9.18;;;16.90;99.90;;;;;;5047849;28;20492;-87
2023/08/22 06:04:20;;;;;;;23.98;10.38;;;17.00;99.90;;;;;;5043868;28;20040;-87
2023/08/22 06:06:46;;;;;;;18.80;10.15;;;17.10;99.90;;;;;;5065531;28;20045;-87
2023/08/22 06:09:12;;;;;;;23.10;10.18;;;17.10;99.90;;;;;;5046145;28;20044;-87
2023/08/22 06:11:38;;;;;;;23.27;9.52;;;17.20;99.90;;;;;;5066347;28;20043;-87
2023/08/22 06:14:04;;;;;;;18.65;8.70;;;17.30;99.90;;;;;;5061716;28;20046;-87
2023/08/22 06:16:30;;;;;;;15.15;7.75;;;17.40;99.90;;;;;;5058375;28;20069;-87
2023/08/22 06:18:56;;;;;;;14.95;7.97;;;17.50;99.90;;;;;;5040890;28;20125;-87
2023/08/22 06:21:21;;;;;;;18.60;8.13;;;17.60;99.90;;;;;;5067055;28;20108;-87
2023/08/22 06:23:48;;;;;;;14.68;7.82;;;17.70;99.90;;;;;;5062029;28;20048;-87
2023/08/22 06:26:15;;;;;;;16.15;7.30;;;17.90;99.90;;;;;;5060163;28;20118;-87
2023/08/22 06:28:41;;;;;;;14.80;6.80;;;17.90;99.90;;;;;;5062205;28;20080;-87
2023/08/22 06:31:07;;;;;;;17.27;6.88;;;18.00;99.90;;;;;;5081494;28;20528;-87
2023/08/22 06:33:33;;;;;;;16.60;6.75;;;18.10;99.90;;;;;;5052709;28;20470;-86
2023/08/22 06:35:58;;;;;;;14.15;6.50;;;18.10;99.90;;;;;;5051977;28;20478;-87
2023/08/22 06:38:25;;;;;;;11.40;6.35;;;18.00;99.90;;;;;;5069972;28;20048;-87
2023/08/22 06:40:51;;;;;;;12.60;5.63;;;18.10;99.90;;;;;;5051714;28;20040;-86
2023/08/22 06:43:16;;;;;;;11.20;5.63;;;18.20;99.90;;;;;;5055023;28;20055;-87
2023/08/22 06:45:43;;;;;;;12.48;5.70;;;18.30;99.90;;;;;;5060856;28;20036;-87
2023/08/22 06:48:09;;;;;;;16.50;5.57;;;18.30;99.90;;;;;;5068747;28;20052;-88
2023/08/22 06:50:35;;;;;;;14.98;6.43;;;18.50;99.90;;;;;;5039165;28;20048;-87
2023/08/22 06:53:01;;;;;;;16.73;6.15;;;18.60;99.90;;;;;;5062836;28;20044;-87
2023/08/22 06:55:27;;;;;;;12.90;5.45;;;18.80;99.90;;;;;;5048969;28;20401;-86
2023/08/22 06:57:52;;;;;;;12.93;5.32;;;18.90;99.90;;;;;;5049480;28;20479;-86
2023/08/22 07:00:19;;;;;;;11.52;4.72;;;19.00;99.90;;;;;;5067690;28;20050;-88
2023/08/22 07:02:46;;;;;;;9.23;4.95;;;19.00;99.90;;;;;;5053699;28;20055;-91
2023/08/22 07:05:14;;;;;;;12.82;4.95;;;19.00;99.90;;;;;;5050417;28;20036;-90
2023/08/22 07:07:41;;;;;;;9.95;4.47;;;19.00;99.90;;;;;;5069113;28;20040;-87
2023/08/22 07:10:08;;;;;;;12.23;4.50;;;19.00;99.90;;;;;;5049704;28;20040;-89
2023/08/22 07:12:37;;;;;;;11.20;4.75;;;19.10;99.90;;;;;;5050906;28;20044;-89
2023/08/22 07:15:04;;;;;;;11.07;5.00;;;19.20;99.90;;;;;;5070762;28;20043;-95
2023/08/22 07:17:30;;;;;;;13.35;4.85;;;19.30;99.90;;;;;;5052348;28;20036;-90
2023/08/22 07:19:56;;;;;;;14.68;4.53;;;19.30;99.90;;;;;;5054380;28;20088;-89
2023/08/22 07:22:22;;;;;;;8.30;4.20;;;19.40;99.90;;;;;;5069445;28;20504;-89
2023/08/22 07:24:48;;;;;;;10.15;4.57;;;19.50;99.90;;;;;;5061124;28;20045;-89
2023/08/22 07:27:14;;;;;;;12.50;4.80;;;19.50;99.90;;;;;;5057055;28;20046;-90
2023/08/22 07:29:40;;;;;;;13.38;4.93;;;19.60;99.90;;;;;;5065356;28;20044;-91
2023/08/22 07:32:08;;;;;;;13.20;4.88;;;19.70;99.90;;;;;;5049151;28;20207;-91
2023/08/22 07:34:34;;;;;;;9.48;5.05;;;19.80;99.90;;;;;;5071942;28;20471;-92
2023/08/22 07:36:59;;;;;;;9.23;4.65;;;19.80;99.90;;;;;;5044390;28;20039;-92
2023/08/22 07:39:27;;;;;;;12.57;4.60;;;19.90;99.90;;;;;;5055979;28;20123;-91
2023/08/22 07:41:52;;;;;;;8.43;4.20;;;19.90;99.90;;;;;;5061190;28;20040;-86
2023/08/22 07:44:18;;;;;;;10.40;3.90;;;19.90;99.90;;;;;;5070556;28;20494;-87
2023/08/22 07:46:44;;;;;;;9.65;3.78;;;19.80;99.90;;;;;;5069311;28;20040;-87
2023/08/22 07:49:09;;;;;;;10.93;3.88;;;19.90;99.90;;;;;;5067521;28;20114;-87
2023/08/22 07:51:36;;;;;;;8.95;3.60;;;19.90;99.90;;;;;;5053095;28;20127;-87
2023/08/22 07:54:03;;;;;;;7.65;3.60;;;19.90;99.90;;;;;;5070742;28;20649;-87
2023/08/22 07:56:29;;;;;;;11.63;4.35;;;20.00;99.90;;;;;;5053728;28;20363;-87
2023/08/22 07:58:54;;;;;;;8.40;3.50;;;20.20;99.90;;;;;;5087041;28;20505;-87
2023/08/22 08:01:20;;;;;;;8.40;3.85;;;20.30;99.90;;;;;;5069461;28;20097;-87
2023/08/22 08:03:46;;;;;;;10.93;3.40;;;20.40;99.90;;;;;;5032536;28;20494;-87
2023/08/22 08:06:11;;;;;;;11.73;3.15;;;20.40;99.90;;;;;;5064097;28;20040;-87
2023/08/22 08:08:37;;;;;;;7.93;3.33;;;20.40;99.90;;;;;;5071309;28;20040;-87
2023/08/22 08:11:03;;;;;;;6.70;3.15;;;20.40;99.90;;;;;;5051927;28;20118;-87
2023/08/22 08:13:29;;;;;;;6.32;2.90;;;20.40;99.90;;;;;;5042525;28;20040;-87
2023/08/22 08:15:55;;;;;;;7.22;2.58;;;20.40;99.90;;;;;;5077134;28;20048;-87
2023/08/22 08:18:21;;;;;;;9.63;2.90;;;20.40;99.90;;;;;;5071747;28;20438;-87
2023/08/22 08:20:46;;;;;;;7.03;2.85;;;20.50;99.90;;;;;;5054985;28;20048;-87
2023/08/22 08:23:12;;;;;;;8.95;3.28;;;20.60;99.90;;;;;;5071434;28;20463;-87
2023/08/22 08:25:38;;;;;;;6.40;3.17;;;20.80;99.90;;;;;;5070068;28;20044;-87
2023/08/22 08:28:05;;;;;;;7.75;3.08;;;21.00;99.90;;;;;;5071846;28;20047;-88
2023/08/22 08:30:31;;;;;;;7.10;3.30;;;21.20;99.90;;;;;;5072341;28;20055;-87
2023/08/22 08:32:57;;;;;;;9.57;3.83;;;21.40;99.90;;;;;;5070346;28;20218;-87
2023/08/22 08:35:23;;;;;;;9.48;4.05;;;21.60;99.90;;;;;;5089367;28;20038;-86
2023/08/22 08:37:49;;;;;;;8.15;3.58;;;21.70;99.90;;;;;;5054275;28;20471;-87
2023/08/22 08:40:15;;;;;;;5.63;2.90;;;21.90;99.90;;;;;;5070862;28;20149;-87
2023/08/22 08:42:44;;;;;;;10.75;3.33;;;22.10;99.90;;;;;;5054644;28;20048;-87
2023/08/22 08:45:10;;;;;;;8.35;2.80;;;22.30;99.90;;;;;;5054775;28;20146;-88
2023/08/22 08:47:37;;;;;;;6.85;2.70;;;22.50;99.90;;;;;;5053577;28;20491;-88
2023/08/22 08:50:06;;;;;;;7.68;2.30;;;22.60;99.90;;;;;;5055351;28;20082;-88
2023/08/22 08:52:32;;;;;;;9.27;1.95;;;22.70;99.90;;;;;;5054344;28;20036;-88
2023/08/22 08:55:00;;;;;;;4.88;1.98;;;22.60;99.90;;;;;;5041247;28;20496;-88
2023/08/22 08:57:29;;;;;;;7.18;1.98;;;22.70;99.90;;;;;;5071426;28;20036;-88
2023/08/22 08:59:55;;;;;;;5.63;2.22;;;22.80;99.90;;;;;;5053596;28;20097;-87
2023/08/22 09:02:20;;;;;;;5.10;1.90;;;23.00;99.90;;;;;;5045294;28;20048;-88
2023/08/22 09:04:46;;;;;;;5.30;2.40;;;23.10;99.90;;;;;;5066451;28;20313;-89
2023/08/22 09:07:14;;;;;;;6.15;1.85;;;23.10;99.90;;;;;;5051287;28;20048;-88
2023/08/22 09:09:40;;;;;;;7.28;1.95;;;23.00;99.90;;;;;;5069965;28;20059;-88
2023/08/22 09:12:08;;;;;;;4.97;1.42;;;23.00;99.90;;;;;;5054789;28;20040;-87
2023/08/22 09:14:39;;;;;;;5.75;1.85;;;22.90;99.90;;;;;;5053330;28;20090;-88
2023/08/22 09:17:05;;;;;;;6.07;2.30;;;22.90;99.90;;;;;;5054160;28;20042;-88
2023/08/22 09:19:34;;;;;;;5.15;1.80;;;22.70;99.90;;;;;;5071108;28;20040;-87
2023/08/22 09:22:03;;;;;;;5.78;1.48;;;22.60;99.90;;;;;;5053533;28;20049;-88
2023/08/22 09:24:30;;;;;;;4.97;1.40;;;22.50;99.90;;;;;;5054407;28;20046;-89
2023/08/22 09:26:56;;;;;;;3.45;0.98;;;22.30;99.90;;;;;;5054027;28;20385;-88
2023/08/22 09:29:30;;;;;;;4.22;1.00;;;22.30;99.90;;;;;;5069766;28;20044;-88
2023/08/22 09:32:06;;;;;;;3.92;1.10;;;22.30;99.90;;;;;;5053280;28;20046;-88
2023/08/22 09:34:34;;;;;;;4.65;1.27;;;22.20;99.90;;;;;;5084094;28;20119;-89
2023/08/22 09:37:00;;;;;;;5.07;0.98;;;22.20;99.90;;;;;;5069482;28;20430;-88
2023/08/22 09:39:26;;;;;;;3.85;1.17;;;22.40;99.90;;;;;;5054302;28;20441;-88
2023/08/22 09:41:54;;;;;;;3.63;1.08;;;22.50;99.90;;;;;;5069664;28;20079;-89
2023/08/22 09:44:28;;;;;;;4.75;1.15;;;22.70;99.90;;;;;;5051160;28;20113;-89
2023/08/22 09:46:56;;;;;;;5.22;1.45;;;22.90;99.90;;;;;;5050509;28;20044;-89
2023/08/22 09:49:23;;;;;;;3.65;1.58;;;23.10;99.90;;;;;;5045700;28;20051;-88
2023/08/22 09:51:51;;;;;;;3.80;1.23;;;23.20;99.90;;;;;;5065031;28;20122;-88
2023/08/22 09:54:17;;;;;;;6.72;1.83;;;23.10;99.90;;;;;;5050643;28;20506;-89
2023/08/22 09:56:43;;;;;;;7.53;1.70;;;23.00;99.90;;;;;;5069359;28;20514;-89
2023/08/22 09:59:15;;;;;;;8.98;1.60;;;22.80;99.90;;;;;;5071260;28;20043;-89
2023/08/22 10:01:42;;;;;;;4.47;1.70;;;22.70;99.90;;;;;;5049691;28;20055;-88
2023/08/22 10:04:09;;;;;;;6.22;1.83;;;22.60;99.90;;;;;;5049919;28;20049;-88
2023/08/22 10:06:37;;;;;;;3.70;1.58;;;22.60;99.90;;;;;;5050585;28;20108;-88
2023/08/22 10:09:08;;;;;;;5.57;1.88;;;22.80;99.90;;;;;;5059821;28;20062;-88
2023/08/22 10:11:56;;;;;;;5.28;1.67;;;22.90;99.90;;;;;;5067666;28;20064;-89
2023/08/22 10:14:42;;;;;;;5.68;2.38;;;23.10;99.90;;;;;;5053765;28;20135;-89
2023/08/22 10:17:14;;;;;;;8.15;2.00;;;23.30;99.90;;;;;;5052478;28;20048;-89
2023/08/22 10:19:44;;;;;;;11.35;2.60;;;23.30;99.90;;;;;;5053490;28;20040;-89
2023/08/22 10:22:14;;;;;;;12.85;2.53;;;23.20;99.90;;;;;;5054360;28;20097;-89
2023/08/22 10:24:41;;;;;;;4.82;2.20;;;23.20;99.90;;;;;;5051640;28;20060;-88
2023/08/22 10:27:12;;;;;;;7.45;2.83;;;23.30;99.90;;;;;;5065058;28;20044;-88
2023/08/22 10:30:13;;;;;;;6.05;2.45;;;23.40;99.90;;;;;;5049650;28;20044;-88
2023/08/22 10:32:39;;;;;;;5.10;2.30;;;23.60;99.90;;;;;;5052080;28;20062;-88
2023/08/22 10:35:14;;;;;;;7.90;2.85;;;23.60;99.90;;;;;;5051987;28;20083;-87
2023/08/22 10:37:50;;;;;;;15.98;4.05;;;23.60;99.90;;;;;;5069013;28;20052;-87
2023/08/22 10:40:34;;;;;;;9.90;2.88;;;23.70;99.90;;;;;;5045373;28;20052;-88
2023/08/22 10:43:08;;;;;;;7.88;2.85;;;23.80;99.90;;;;;;5055254;28;20110;-87
2023/08/22 10:45:51;;;;;;;12.95;3.30;;;24.00;99.90;;;;;;5063968;28;20080;-87
2023/08/22 10:48:19;;;;;;;13.77;3.60;;;24.20;99.90;;;;;;5046624;28;20056;-88
2023/08/22 10:50:46;;;;;;;10.48;3.40;;;24.20;99.90;;;;;;5071088;28;20050;-88
2023/08/22 10:53:18;;;;;;;5.75;2.35;;;24.20;99.90;;;;;;5049405;28;20127;-88
2023/08/22 10:55:44;;;;;;;9.18;2.83;;;24.20;99.90;;;;;;5067180;28;20059;-87
2023/08/22 10:58:37;;;;;;;8.27;2.78;;;24.10;99.90;;;;;;5046457;28;20471;-87
2023/08/22 11:01:08;;;;;;;9.07;3.20;;;23.80;99.90;;;;;;5050553;28;20047;-87
2023/08/22 11:03:34;;;;;;;14.00;3.22;;;23.70;99.90;;;;;;5053032;28;20345;-87
2023/08/22 11:06:00;;;;;;;7.03;2.58;;;23.80;99.90;;;;;;5067260;28;20423;-88
2023/08/22 11:08:25;;;;;;;10.00;3.97;;;23.90;99.90;;;;;;5072356;28;20483;-87
2023/08/22 11:10:52;;;;;;;34.33;5.43;;;24.00;99.90;;;;;;5055791;28;20778;-89
2023/08/22 11:13:18;;;;;;;9.10;2.85;;;24.20;99.90;;;;;;5040269;28;20041;-86
2023/08/22 11:15:49;;;;;;;7.30;3.00;;;24.20;99.90;;;;;;5069417;28;20036;-89
2023/08/22 11:18:15;;;;;;;9.65;3.45;;;24.40;99.90;;;;;;5075146;28;20044;-86
2023/08/22 11:20:42;;;;;;;16.27;3.00;;;24.50;99.90;;;;;;5054436;28;20098;-88
2023/08/22 11:23:08;;;;;;;13.18;3.25;;;24.70;99.90;;;;;;5051840;28;20055;-88
2023/08/22 11:25:36;;;;;;;9.98;2.35;;;24.80;99.90;;;;;;5056912;28;20048;-88
2023/08/22 11:28:03;;;;;;;7.28;2.08;;;25.00;99.90;;;;;;5046921;28;20155;-88
2023/08/22 11:30:29;;;;;;;4.25;1.92;;;25.10;99.90;;;;;;5053540;28;20104;-87
2023/08/22 11:32:55;;;;;;;9.02;1.95;;;25.20;99.90;;;;;;5046081;28;20044;-89
2023/08/22 11:35:20;;;;;;;7.40;1.92;;;25.20;99.90;;;;;;5052182;28;20044;-88
2023/08/22 11:37:46;;;;;;;3.47;1.58;;;25.10;99.90;;;;;;5074168;28;20032;-88
2023/08/22 11:40:16;;;;;;;7.22;2.22;;;25.20;99.90;;;;;;5047310;28;20570;-89
2023/08/22 11:42:42;;;;;;;3.35;1.10;;;25.10;99.90;;;;;;5062101;28;20071;-88
2023/08/22 11:45:22;;;;;;;6.47;1.30;;;25.10;99.90;;;;;;5074605;28;20040;-90
2023/08/22 11:47:53;;;;;;;5.00;1.20;;;25.00;99.90;;;;;;5064133;28;20052;-87
2023/08/22 11:50:20;;;;;;;7.32;1.70;;;24.80;99.90;;;;;;5063865;28;20052;-87
2023/08/22 11:53:09;;;;;;;5.05;1.30;;;24.90;99.90;;;;;;5056876;28;20040;-87
2023/08/22 11:55:37;;;;;;;4.25;1.10;;;25.00;99.90;;;;;;5070160;28;20054;-89
2023/08/22 11:58:04;;;;;;;3.95;0.90;;;25.10;99.90;;;;;;5057884;28;20080;-90
2023/08/22 12:00:32;;;;;;;6.25;1.00;;;25.10;99.90;;;;;;5047555;28;20124;-88
2023/08/22 12:03:01;;;;;;;3.15;0.90;;;25.30;99.90;;;;;;5051279;28;20193;-88
2023/08/22 12:05:30;;;;;;;4.65;1.30;;;25.40;99.90;;;;;;5056536;28;20490;-88
2023/08/22 12:08:07;;;;;;;7.68;1.50;;;25.60;99.90;;;;;;5044913;28;20856;-90
2023/08/22 12:11:01;;;;;;;25.38;2.55;;;25.50;99.90;;;;;;5047034;28;20086;-92
2023/08/22 12:13:27;;;;;;;6.75;1.20;;;25.50;99.90;;;;;;5044612;28;20071;-91
2023/08/22 12:15:53;;;;;;;4.13;0.73;;;25.50;99.90;;;;;;5070696;28;20504;-86
2023/08/22 12:18:19;;;;;;;4.18;0.93;;;25.60;99.90;;;;;;5057576;28;20069;-89
2023/08/22 12:20:48;;;;;;;5.18;1.38;;;25.70;99.90;;;;;;5066916;28;20831;-88
2023/08/22 12:23:14;;;;;;;5.55;1.10;;;25.80;99.90;;;;;;5057871;28;20123;-94
2023/08/22 12:25:41;;;;;;;4.78;1.08;;;25.90;99.90;;;;;;5071201;28;20131;-96
2023/08/22 12:28:08;;;;;;;3.75;0.80;;;25.80;99.90;;;;;;5051289;28;20448;-96
2023/08/22 12:30:35;;;;;;;4.95;1.00;;;25.70;99.90;;;;;;5079133;28;20048;-94
2023/08/22 12:33:05;;;;;;;4.07;1.10;;;25.50;99.90;;;;;;5070629;28;20550;-94
2023/08/22 12:35:36;;;;;;;3.65;0.98;;;25.50;99.90;;;;;;5058223;28;20048;-95
2023/08/22 12:38:02;;;;;;;4.30;1.00;;;25.40;99.90;;;;;;5057496;28;20055;-94
2023/08/22 12:40:28;;;;;;;13.93;1.10;;;25.20;99.90;;;;;;5056417;28;20056;-94
2023/08/22 12:42:55;;;;;;;6.47;1.23;;;25.10;99.90;;;;;;5071401;28;20065;-90
2023/08/22 12:45:22;;;;;;;4.05;1.50;;;25.10;99.90;;;;;;5057402;28;20514;-91